sensor_id;sensor_type;location;lat;lon;timestamp;pressure;altitude;pressure_sealevel;temperature;humidity
79663;BME280;69130;48.724;8.982;2023-04-24T00:02:20;95505.97;;;9.30;85.98
79663;BME280;69130;48.724;8.982;2023-04-24T00:04:45;95500.00;;;9.39;85.60
79663;BME280;69130;48.724;8.982;2023-04-24T00:07:11;95516.41;;;9.31;85.67
79663;BME280;69130;48.724;8.982;2023-04-24T00:09:38;95521.22;;;9.37;85.58
79663;BME280;69130;48.724;8.982;2023-04-24T00:12:03;95533.81;;;9.34;85.62
79663;BME280;69130;48.724;8.982;2023-04-24T00:14:30;95533.59;;;9.37;85.59
79663;BME280;69130;48.724;8.982;2023-04-24T00:16:55;95516.91;;;9.36;85.22
79663;BME280;69130;48.724;8.982;2023-04-24T00:19:21;95513.53;;;9.34;85.64
79663;BME280;69130;48.724;8.982;2023-04-24T00:21:47;95525.69;;;9.37;85.19
79663;BME280;69130;48.724;8.982;2023-04-24T00:24:15;95523.88;;;9.48;85.48
79663;BME280;69130;48.724;8.982;2023-04-24T00:26:40;95518.81;;;9.45;85.45
79663;BME280;69130;48.724;8.982;2023-04-24T00:29:06;95527.69;;;9.55;83.91
79663;BME280;69130;48.724;8.982;2023-04-24T00:31:31;95516.06;;;9.58;84.31
79663;BME280;69130;48.724;8.982;2023-04-24T00:33:59;95508.50;;;9.64;83.66
79663;BME280;69130;48.724;8.982;2023-04-24T00:36:25;95513.50;;;9.67;83.12
79663;BME280;69130;48.724;8.982;2023-04-24T00:38:52;95507.03;;;9.72;82.95
79663;BME280;69130;48.724;8.982;2023-04-24T00:41:17;95507.84;;;9.83;82.35
79663;BME280;69130;48.724;8.982;2023-04-24T00:43:43;95504.03;;;9.76;82.22
79663;BME280;69130;48.724;8.982;2023-04-24T00:46:08;95505.81;;;9.76;82.28
79663;BME280;69130;48.724;8.982;2023-04-24T00:48:34;95497.63;;;9.79;81.40
79663;BME280;69130;48.724;8.982;2023-04-24T00:50:59;95497.91;;;9.76;81.34
79663;BME280;69130;48.724;8.982;2023-04-24T00:53:24;95499.78;;;9.85;80.60
79663;BME280;69130;48.724;8.982;2023-04-24T00:55:50;95491.03;;;9.84;81.14
79663;BME280;69130;48.724;8.982;2023-04-24T00:58:16;95490.66;;;9.89;81.40
79663;BME280;69130;48.724;8.982;2023-04-24T01:00:41;95483.69;;;9.88;80.99
79663;BME280;69130;48.724;8.982;2023-04-24T01:03:08;95478.50;;;9.97;80.19
79663;BME280;69130;48.724;8.982;2023-04-24T01:05:33;95478.28;;;9.89;81.84
79663;BME280;69130;48.724;8.982;2023-04-24T01:07:59;95479.97;;;9.90;81.31
79663;BME280;69130;48.724;8.982;2023-04-24T01:10:27;95478.88;;;9.93;81.06
79663;BME280;69130;48.724;8.982;2023-04-24T01:12:54;95478.66;;;9.85;82.11
79663;BME280;69130;48.724;8.982;2023-04-24T01:15:20;95482.94;;;9.97;81.80
79663;BME280;69130;48.724;8.982;2023-04-24T01:17:45;95485.38;;;9.89;82.91
79663;BME280;69130;48.724;8.982;2023-04-24T01:20:12;95485.41;;;9.78;83.88
79663;BME280;69130;48.724;8.982;2023-04-24T01:22:37;95478.72;;;9.62;84.84
79663;BME280;69130;48.724;8.982;2023-04-24T01:25:03;95471.63;;;9.52;85.36
79663;BME280;69130;48.724;8.982;2023-04-24T01:27:29;95471.78;;;9.50;84.98
79663;BME280;69130;48.724;8.982;2023-04-24T01:29:54;95466.00;;;9.45;85.93
79663;BME280;69130;48.724;8.982;2023-04-24T01:32:20;95471.06;;;9.48;85.52
79663;BME280;69130;48.724;8.982;2023-04-24T01:34:46;95459.28;;;9.41;85.84
79663;BME280;69130;48.724;8.982;2023-04-24T01:37:12;95457.97;;;9.36;86.60
79663;BME280;69130;48.724;8.982;2023-04-24T01:39:37;95458.09;;;9.34;87.16
79663;BME280;69130;48.724;8.982;2023-04-24T01:42:04;95460.47;;;9.37;86.85
79663;BME280;69130;48.724;8.982;2023-04-24T01:44:30;95457.84;;;9.37;86.42
79663;BME280;69130;48.724;8.982;2023-04-24T01:46:55;95454.75;;;9.32;86.26
79663;BME280;69130;48.724;8.982;2023-04-24T01:49:21;95456.53;;;9.43;86.91
79663;BME280;69130;48.724;8.982;2023-04-24T01:51:47;95459.19;;;9.43;86.86
79663;BME280;69130;48.724;8.982;2023-04-24T01:54:12;95463.47;;;9.55;85.94
79663;BME280;69130;48.724;8.982;2023-04-24T01:56:41;95458.56;;;9.50;85.89
79663;BME280;69130;48.724;8.982;2023-04-24T01:59:09;95459.19;;;9.43;86.14
79663;BME280;69130;48.724;8.982;2023-04-24T02:01:35;95464.56;;;9.52;86.31
79663;BME280;69130;48.724;8.982;2023-04-24T02:04:04;95464.56;;;9.52;86.40
79663;BME280;69130;48.724;8.982;2023-04-24T02:06:30;95451.13;;;9.44;85.94
79663;BME280;69130;48.724;8.982;2023-04-24T02:09:00;95452.81;;;9.34;86.74
79663;BME280;69130;48.724;8.982;2023-04-24T02:11:25;95462.88;;;9.29;86.79
79663;BME280;69130;48.724;8.982;2023-04-24T02:13:51;95468.88;;;9.31;87.29
79663;BME280;69130;48.724;8.982;2023-04-24T02:16:17;95463.38;;;9.34;86.53
79663;BME280;69130;48.724;8.982;2023-04-24T02:18:43;95468.06;;;9.42;86.60
79663;BME280;69130;48.724;8.982;2023-04-24T02:21:08;95457.97;;;9.36;86.83
79663;BME280;69130;48.724;8.982;2023-04-24T02:23:34;95463.16;;;9.26;87.08
79663;BME280;69130;48.724;8.982;2023-04-24T02:25:59;95460.75;;;9.34;87.33
79663;BME280;69130;48.724;8.982;2023-04-24T02:28:25;95470.31;;;9.35;87.11
79663;BME280;69130;48.724;8.982;2023-04-24T02:30:50;95470.09;;;9.38;87.07
79663;BME280;69130;48.724;8.982;2023-04-24T02:33:16;95475.13;;;9.41;87.08
79663;BME280;69130;48.724;8.982;2023-04-24T02:35:41;95475.25;;;9.40;87.46
79663;BME280;69130;48.724;8.982;2023-04-24T02:38:06;95474.06;;;9.33;87.63
79663;BME280;69130;48.724;8.982;2023-04-24T02:40:32;95479.34;;;9.44;87.77
79663;BME280;69130;48.724;8.982;2023-04-24T02:42:57;95477.44;;;9.35;88.72
79663;BME280;69130;48.724;8.982;2023-04-24T02:45:22;95470.22;;;9.37;88.44
79663;BME280;69130;48.724;8.982;2023-04-24T02:47:48;95468.69;;;9.23;89.51
79663;BME280;69130;48.724;8.982;2023-04-24T02:50:13;95461.94;;;9.30;89.48
79663;BME280;69130;48.724;8.982;2023-04-24T02:52:38;95467.97;;;9.21;89.87
79663;BME280;69130;48.724;8.982;2023-04-24T02:55:04;95466.75;;;9.14;90.19
79663;BME280;69130;48.724;8.982;2023-04-24T02:57:30;95462.78;;;9.09;90.67
79663;BME280;69130;48.724;8.982;2023-04-24T02:59:55;95466.50;;;9.06;90.30
79663;BME280;69130;48.724;8.982;2023-04-24T03:02:21;95464.84;;;9.05;90.10
79663;BME280;69130;48.724;8.982;2023-04-24T03:04:46;95463.03;;;9.06;89.95
79663;BME280;69130;48.724;8.982;2023-04-24T03:07:13;95449.94;;;9.04;89.94
79663;BME280;69130;48.724;8.982;2023-04-24T03:09:39;95441.19;;;9.04;89.50
79663;BME280;69130;48.724;8.982;2023-04-24T03:12:05;95445.75;;;9.02;90.04
79663;BME280;69130;48.724;8.982;2023-04-24T03:14:30;95455.63;;;9.00;89.94
79663;BME280;69130;48.724;8.982;2023-04-24T03:16:56;95450.66;;;9.06;89.57
79663;BME280;69130;48.724;8.982;2023-04-24T03:19:21;95455.25;;;8.93;89.83
79663;BME280;69130;48.724;8.982;2023-04-24T03:21:47;95453.06;;;8.98;89.46
79663;BME280;69130;48.724;8.982;2023-04-24T03:24:12;95449.25;;;8.91;89.89
79663;BME280;69130;48.724;8.982;2023-04-24T03:26:38;95446.59;;;8.91;89.83
79663;BME280;69130;48.724;8.982;2023-04-24T03:29:03;95444.69;;;8.93;89.70
79663;BME280;69130;48.724;8.982;2023-04-24T03:31:28;95442.16;;;9.03;90.20
79663;BME280;69130;48.724;8.982;2023-04-24T03:33:54;95441.91;;;8.95;90.16
79663;BME280;69130;48.724;8.982;2023-04-24T03:36:19;95439.88;;;8.98;89.62
79663;BME280;69130;48.724;8.982;2023-04-24T03:38:45;95427.66;;;8.97;89.07
79663;BME280;69130;48.724;8.982;2023-04-24T03:41:10;95440.22;;;8.82;90.18
79663;BME280;69130;48.724;8.982;2023-04-24T03:43:37;95438.31;;;8.73;90.16
79663;BME280;69130;48.724;8.982;2023-04-24T03:46:03;95436.63;;;8.61;90.64
79663;BME280;69130;48.724;8.982;2023-04-24T03:48:28;95436.88;;;8.69;90.20
79663;BME280;69130;48.724;8.982;2023-04-24T03:50:54;95439.59;;;8.57;90.47
79663;BME280;69130;48.724;8.982;2023-04-24T03:53:19;95439.47;;;8.58;90.48
79663;BME280;69130;48.724;8.982;2023-04-24T03:55:45;95437.69;;;8.48;90.88
79663;BME280;69130;48.724;8.982;2023-04-24T03:58:11;95446.91;;;8.53;91.08
79663;BME280;69130;48.724;8.982;2023-04-24T04:00:36;95441.75;;;8.52;90.73
79663;BME280;69130;48.724;8.982;2023-04-24T04:03:03;95445.25;;;8.63;90.47
79663;BME280;69130;48.724;8.982;2023-04-24T04:05:28;95456.78;;;8.73;90.80
79663;BME280;69130;48.724;8.982;2023-04-24T04:07:54;95461.59;;;8.79;89.90
79663;BME280;69130;48.724;8.982;2023-04-24T04:10:19;95468.28;;;8.72;90.40
79663;BME280;69130;48.724;8.982;2023-04-24T04:12:45;95480.13;;;8.78;90.52
79663;BME280;69130;48.724;8.982;2023-04-24T04:15:10;95500.91;;;8.82;91.44
79663;BME280;69130;48.724;8.982;2023-04-24T04:17:35;95522.63;;;8.97;91.30
79663;BME280;69130;48.724;8.982;2023-04-24T04:20:03;95539.41;;;8.85;88.97
79663;BME280;69130;48.724;8.982;2023-04-24T04:22:32;95536.22;;;8.58;86.93
79663;BME280;69130;48.724;8.982;2023-04-24T04:24:57;95532.88;;;8.32;87.43
79663;BME280;69130;48.724;8.982;2023-04-24T04:27:23;95534.22;;;8.14;86.54
79663;BME280;69130;48.724;8.982;2023-04-24T04:29:48;95536.03;;;8.01;88.15
79663;BME280;69130;48.724;8.982;2023-04-24T04:32:13;95540.38;;;8.02;86.85
79663;BME280;69130;48.724;8.982;2023-04-24T04:34:40;95533.69;;;7.85;88.36
79663;BME280;69130;48.724;8.982;2023-04-24T04:37:05;95542.44;;;7.86;88.48
79663;BME280;69130;48.724;8.982;2023-04-24T04:39:31;95536.88;;;7.78;88.82
79663;BME280;69130;48.724;8.982;2023-04-24T04:41:56;95531.22;;;7.71;89.12
79663;BME280;69130;48.724;8.982;2023-04-24T04:44:22;95533.00;;;7.71;89.37
79663;BME280;69130;48.724;8.982;2023-04-24T04:46:48;95533.22;;;7.68;89.28
79663;BME280;69130;48.724;8.982;2023-04-24T04:49:14;95536.38;;;7.73;88.89
79663;BME280;69130;48.724;8.982;2023-04-24T04:51:41;95536.69;;;7.68;89.75
79663;BME280;69130;48.724;8.982;2023-04-24T04:54:07;95544.59;;;7.68;89.32
79663;BME280;69130;48.724;8.982;2023-04-24T04:56:32;95552.16;;;7.73;89.91
79663;BME280;69130;48.724;8.982;2023-04-24T04:58:58;95553.84;;;7.74;88.56
79663;BME280;69130;48.724;8.982;2023-04-24T05:01:24;95558.59;;;7.69;87.31
79663;BME280;69130;48.724;8.982;2023-04-24T05:03:50;95558.91;;;7.77;89.09
79663;BME280;69130;48.724;8.982;2023-04-24T05:06:15;95558.66;;;7.80;88.93
79663;BME280;69130;48.724;8.982;2023-04-24T05:08:41;95563.81;;;7.81;87.77
79663;BME280;69130;48.724;8.982;2023-04-24T05:11:06;95561.41;;;7.78;89.66
79663;BME280;69130;48.724;8.982;2023-04-24T05:13:32;95579.22;;;7.75;88.60
79663;BME280;69130;48.724;8.982;2023-04-24T05:15:58;95579.22;;;7.75;89.20
79663;BME280;69130;48.724;8.982;2023-04-24T05:18:24;95586.06;;;7.77;89.27
79663;BME280;69130;48.724;8.982;2023-04-24T05:20:49;95582.91;;;7.72;89.18
79663;BME280;69130;48.724;8.982;2023-04-24T05:23:14;95592.91;;;7.80;88.60
79663;BME280;69130;48.724;8.982;2023-04-24T05:25:40;95606.59;;;7.85;89.09
79663;BME280;69130;48.724;8.982;2023-04-24T05:28:06;95605.88;;;7.83;88.51
79663;BME280;69130;48.724;8.982;2023-04-24T05:30:32;95609.22;;;7.85;87.90
79663;BME280;69130;48.724;8.982;2023-04-24T05:32:57;95610.91;;;7.86;88.21
79663;BME280;69130;48.724;8.982;2023-04-24T05:35:22;95619.53;;;7.88;87.83
79663;BME280;69130;48.724;8.982;2023-04-24T05:37:48;95608.19;;;8.11;88.05
79663;BME280;69130;48.724;8.982;2023-04-24T05:40:13;95616.50;;;8.18;87.67
79663;BME280;69130;48.724;8.982;2023-04-24T05:42:39;95621.03;;;8.16;87.47
79663;BME280;69130;48.724;8.982;2023-04-24T05:45:05;95615.03;;;8.14;85.78
79663;BME280;69130;48.724;8.982;2023-04-24T05:47:31;95616.75;;;8.15;87.34
79663;BME280;69130;48.724;8.982;2023-04-24T05:49:56;95622.00;;;8.15;84.67
79663;BME280;69130;48.724;8.982;2023-04-24T05:52:21;95626.25;;;8.05;85.95
79663;BME280;69130;48.724;8.982;2023-04-24T05:54:47;95631.22;;;7.97;86.11
79663;BME280;69130;48.724;8.982;2023-04-24T05:57:12;95627.38;;;8.13;86.19
79663;BME280;69130;48.724;8.982;2023-04-24T05:59:38;95636.94;;;7.90;86.52
79663;BME280;69130;48.724;8.982;2023-04-24T06:02:04;95637.06;;;7.76;87.27
79663;BME280;69130;48.724;8.982;2023-04-24T06:04:29;95630.72;;;7.79;87.00
79663;BME280;69130;48.724;8.982;2023-04-24T06:06:55;95634.50;;;8.36;84.65
79663;BME280;69130;48.724;8.982;2023-04-24T06:09:24;95636.00;;;9.66;79.22
79663;BME280;69130;48.724;8.982;2023-04-24T06:11:50;95633.78;;;10.49;77.25
79663;BME280;69130;48.724;8.982;2023-04-24T06:14:18;95631.66;;;11.48;70.26
79663;BME280;69130;48.724;8.982;2023-04-24T06:16:43;95629.38;;;11.43;69.56
79663;BME280;69130;48.724;8.982;2023-04-24T06:19:09;95643.00;;;11.38;71.20
79663;BME280;69130;48.724;8.982;2023-04-24T06:21:34;95637.25;;;11.13;70.10
79663;BME280;69130;48.724;8.982;2023-04-24T06:23:59;95638.06;;;11.24;68.35
79663;BME280;69130;48.724;8.982;2023-04-24T06:26:25;95631.66;;;11.68;69.35
79663;BME280;69130;48.724;8.982;2023-04-24T06:28:51;95630.63;;;12.20;68.09
79663;BME280;69130;48.724;8.982;2023-04-24T06:31:19;95635.78;;;12.71;64.30
79663;BME280;69130;48.724;8.982;2023-04-24T06:33:44;95632.97;;;13.68;62.79
79663;BME280;69130;48.724;8.982;2023-04-24T06:36:10;95619.81;;;14.49;60.15
79663;BME280;69130;48.724;8.982;2023-04-24T06:38:35;95616.84;;;14.79;57.89
79663;BME280;69130;48.724;8.982;2023-04-24T06:41:01;95624.81;;;14.79;56.63
79663;BME280;69130;48.724;8.982;2023-04-24T06:43:26;95624.53;;;16.04;54.80
79663;BME280;69130;48.724;8.982;2023-04-24T06:45:52;95618.13;;;16.23;53.30
79663;BME280;69130;48.724;8.982;2023-04-24T06:48:17;95619.16;;;16.30;53.98
79663;BME280;69130;48.724;8.982;2023-04-24T06:50:42;95627.03;;;16.31;53.88
79663;BME280;69130;48.724;8.982;2023-04-24T06:53:08;95636.56;;;15.04;57.67
79663;BME280;69130;48.724;8.982;2023-04-24T06:55:36;95633.53;;;14.18;59.75
79663;BME280;69130;48.724;8.982;2023-04-24T06:58:01;95643.94;;;14.01;60.95
79663;BME280;69130;48.724;8.982;2023-04-24T07:00:26;95633.56;;;13.52;61.50
79663;BME280;69130;48.724;8.982;2023-04-24T07:02:52;95647.50;;;12.59;65.16
79663;BME280;69130;48.724;8.982;2023-04-24T07:05:17;95648.81;;;11.94;66.81
79663;BME280;69130;48.724;8.982;2023-04-24T07:07:46;95651.56;;;11.42;69.57
79663;BME280;69130;48.724;8.982;2023-04-24T07:10:12;95661.91;;;10.93;67.78
79663;BME280;69130;48.724;8.982;2023-04-24T07:12:38;95667.63;;;10.77;69.84
79663;BME280;69130;48.724;8.982;2023-04-24T07:15:04;95660.25;;;10.81;70.22
79663;BME280;69130;48.724;8.982;2023-04-24T07:17:30;95656.91;;;10.79;70.54
79663;BME280;69130;48.724;8.982;2023-04-24T07:19:55;95663.34;;;10.97;69.09
79663;BME280;69130;48.724;8.982;2023-04-24T07:22:20;95658.81;;;11.81;64.19
79663;BME280;69130;48.724;8.982;2023-04-24T07:24:46;95644.03;;;12.87;59.91
79663;BME280;69130;48.724;8.982;2023-04-24T07:27:11;95651.00;;;14.57;55.61
79663;BME280;69130;48.724;8.982;2023-04-24T07:29:37;95650.06;;;16.07;52.35
79663;BME280;69130;48.724;8.982;2023-04-24T07:32:03;95661.38;;;17.02;49.87
79663;BME280;69130;48.724;8.982;2023-04-24T07:34:28;95667.78;;;15.47;49.38
79663;BME280;69130;48.724;8.982;2023-04-24T07:36:54;95663.25;;;14.77;51.87
79663;BME280;69130;48.724;8.982;2023-04-24T07:39:19;95676.22;;;14.62;52.32
79663;BME280;69130;48.724;8.982;2023-04-24T07:41:45;95678.50;;;15.37;52.78
79663;BME280;69130;48.724;8.982;2023-04-24T07:44:10;95673.88;;;15.22;49.97
79663;BME280;69130;48.724;8.982;2023-04-24T07:46:36;95673.25;;;15.10;50.76
79663;BME280;69130;48.724;8.982;2023-04-24T07:49:01;95693.03;;;14.26;52.32
79663;BME280;69130;48.724;8.982;2023-04-24T07:51:27;95690.25;;;13.53;52.34
79663;BME280;69130;48.724;8.982;2023-04-24T07:53:53;95704.09;;;13.47;54.22
79663;BME280;69130;48.724;8.982;2023-04-24T07:56:20;95699.47;;;13.39;53.40
79663;BME280;69130;48.724;8.982;2023-04-24T07:58:45;95705.19;;;13.73;53.25
79663;BME280;69130;48.724;8.982;2023-04-24T08:01:11;95708.28;;;13.68;52.43
79663;BME280;69130;48.724;8.982;2023-04-24T08:03:36;95709.22;;;13.86;52.28
79663;BME280;69130;48.724;8.982;2023-04-24T08:06:01;95704.06;;;13.18;51.96
79663;BME280;69130;48.724;8.982;2023-04-24T08:08:27;95702.31;;;14.13;50.56
79663;BME280;69130;48.724;8.982;2023-04-24T08:10:53;95705.50;;;15.52;49.23
79663;BME280;69130;48.724;8.982;2023-04-24T08:13:18;95707.44;;;16.54;45.09
79663;BME280;69130;48.724;8.982;2023-04-24T08:15:44;95722.00;;;17.01;41.43
79663;BME280;69130;48.724;8.982;2023-04-24T08:18:09;95719.44;;;16.84;44.14
79663;BME280;69130;48.724;8.982;2023-04-24T08:20:36;95724.22;;;17.64;40.80
79663;BME280;69130;48.724;8.982;2023-04-24T08:23:02;95729.44;;;17.89;40.05
79663;BME280;69130;48.724;8.982;2023-04-24T08:25:27;95720.09;;;16.26;44.65
79663;BME280;69130;48.724;8.982;2023-04-24T08:27:53;95738.16;;;14.92;46.21
79663;BME280;69130;48.724;8.982;2023-04-24T08:30:18;95742.34;;;14.11;49.77
79663;BME280;69130;48.724;8.982;2023-04-24T08:32:43;95736.22;;;13.05;52.66
79663;BME280;69130;48.724;8.982;2023-04-24T08:35:09;95743.50;;;13.03;53.57
79663;BME280;69130;48.724;8.982;2023-04-24T08:37:35;95742.25;;;13.07;53.47
79663;BME280;69130;48.724;8.982;2023-04-24T08:40:01;95745.13;;;14.19;49.51
79663;BME280;69130;48.724;8.982;2023-04-24T08:42:31;95747.22;;;13.01;52.38
79663;BME280;69130;48.724;8.982;2023-04-24T08:44:59;95749.22;;;12.69;54.50
79663;BME280;69130;48.724;8.982;2023-04-24T08:47:25;95754.44;;;12.19;57.23
79663;BME280;69130;48.724;8.982;2023-04-24T08:49:52;95757.47;;;12.36;56.77
79663;BME280;69130;48.724;8.982;2023-04-24T08:52:19;95756.34;;;11.87;57.19
79663;BME280;69130;48.724;8.982;2023-04-24T08:54:46;95772.63;;;13.53;53.13
79663;BME280;69130;48.724;8.982;2023-04-24T08:57:14;95773.16;;;14.04;52.80
79663;BME280;69130;48.724;8.982;2023-04-24T08:59:40;95781.69;;;14.73;49.82
79663;BME280;69130;48.724;8.982;2023-04-24T09:02:06;95774.44;;;13.71;51.15
79663;BME280;69130;48.724;8.982;2023-04-24T09:04:35;95777.94;;;13.43;54.48
79663;BME280;69130;48.724;8.982;2023-04-24T09:07:01;95787.28;;;14.24;50.41
79663;BME280;69130;48.724;8.982;2023-04-24T09:09:29;95779.31;;;15.07;47.85
79663;BME280;69130;48.724;8.982;2023-04-24T09:11:56;95788.81;;;14.17;50.05
79663;BME280;69130;48.724;8.982;2023-04-24T09:14:22;95795.28;;;15.07;48.72
79663;BME280;69130;48.724;8.982;2023-04-24T09:16:49;95797.22;;;14.87;47.73
79663;BME280;69130;48.724;8.982;2023-04-24T09:19:15;95790.22;;;14.40;45.60
79663;BME280;69130;48.724;8.982;2023-04-24T09:21:40;95788.41;;;14.77;45.15
79663;BME280;69130;48.724;8.982;2023-04-24T09:24:14;95785.44;;;15.61;43.13
79663;BME280;69130;48.724;8.982;2023-04-24T09:26:42;95782.28;;;17.79;37.49
79663;BME280;69130;48.724;8.982;2023-04-24T09:29:16;95778.75;;;19.91;35.22
79663;BME280;69130;48.724;8.982;2023-04-24T09:31:42;95783.47;;;19.20;37.00
79663;BME280;69130;48.724;8.982;2023-04-24T09:34:08;95794.13;;;19.44;36.64
79663;BME280;69130;48.724;8.982;2023-04-24T09:36:36;95811.25;;;18.08;37.66
79663;BME280;69130;48.724;8.982;2023-04-24T09:39:09;95815.81;;;17.16;40.53
79663;BME280;69130;48.724;8.982;2023-04-24T09:41:51;95808.53;;;16.23;40.80
79663;BME280;69130;48.724;8.982;2023-04-24T09:44:18;95808.72;;;14.78;42.31
79663;BME280;69130;48.724;8.982;2023-04-24T09:46:49;95809.09;;;14.46;44.81
79663;BME280;69130;48.724;8.982;2023-04-24T09:49:16;95830.41;;;14.56;46.06
79663;BME280;69130;48.724;8.982;2023-04-24T09:51:45;95828.28;;;14.96;44.59
79663;BME280;69130;48.724;8.982;2023-04-24T09:54:18;95828.72;;;14.45;43.84
79663;BME280;69130;48.724;8.982;2023-04-24T09:56:49;95828.81;;;15.81;44.35
79663;BME280;69130;48.724;8.982;2023-04-24T09:59:17;95835.56;;;17.23;39.17
79663;BME280;69130;48.724;8.982;2023-04-24T10:01:43;95837.72;;;18.27;38.08
79663;BME280;69130;48.724;8.982;2023-04-24T10:04:20;95833.69;;;20.12;35.06
79663;BME280;69130;48.724;8.982;2023-04-24T10:06:47;95838.75;;;18.74;35.62
79663;BME280;69130;48.724;8.982;2023-04-24T10:09:14;95836.63;;;19.16;34.56
79663;BME280;69130;48.724;8.982;2023-04-24T10:11:44;95834.56;;;18.48;37.45
79663;BME280;69130;48.724;8.982;2023-04-24T10:14:14;95836.19;;;19.52;35.23
79663;BME280;69130;48.724;8.982;2023-04-24T10:16:40;95830.97;;;20.20;34.81
79663;BME280;69130;48.724;8.982;2023-04-24T10:19:06;95842.97;;;19.78;34.38
79663;BME280;69130;48.724;8.982;2023-04-24T10:21:32;95832.03;;;18.30;35.91
79663;BME280;69130;48.724;8.982;2023-04-24T10:23:59;95838.31;;;17.39;39.29
79663;BME280;69130;48.724;8.982;2023-04-24T10:26:26;95835.06;;;16.07;42.28
79663;BME280;69130;48.724;8.982;2023-04-24T10:28:52;95846.31;;;15.12;42.78
79663;BME280;69130;48.724;8.982;2023-04-24T10:31:18;95833.66;;;16.38;42.59
79663;BME280;69130;48.724;8.982;2023-04-24T10:33:45;95850.78;;;17.64;38.33
79663;BME280;69130;48.724;8.982;2023-04-24T10:36:12;95837.44;;;19.72;35.68
79663;BME280;69130;48.724;8.982;2023-04-24T10:38:40;95832.47;;;17.43;38.64
79663;BME280;69130;48.724;8.982;2023-04-24T10:41:12;95845.19;;;16.56;41.32
79663;BME280;69130;48.724;8.982;2023-04-24T10:46:32;95855.16;;;14.75;45.56
79663;BME280;69130;48.724;8.982;2023-04-24T10:48:57;95847.34;;;14.17;46.55
79663;BME280;69130;48.724;8.982;2023-04-24T10:51:24;95839.94;;;13.53;47.64
79663;BME280;69130;48.724;8.982;2023-04-24T10:53:51;95880.59;;;12.74;49.61
79663;BME280;69130;48.724;8.982;2023-04-24T10:56:17;95865.91;;;12.08;51.16
79663;BME280;69130;48.724;8.982;2023-04-24T10:58:50;95865.78;;;11.35;53.72
79663;BME280;69130;48.724;8.982;2023-04-24T11:01:31;95877.59;;;11.09;54.55
79663;BME280;69130;48.724;8.982;2023-04-24T11:04:02;95889.50;;;11.15;55.48
79663;BME280;69130;48.724;8.982;2023-04-24T11:09:04;95881.41;;;11.38;53.60
79663;BME280;69130;48.724;8.982;2023-04-24T11:11:35;95874.41;;;11.60;53.67
79663;BME280;69130;48.724;8.982;2023-04-24T11:14:02;95876.09;;;11.92;51.80
79663;BME280;69130;48.724;8.982;2023-04-24T11:21:32;95884.38;;;12.81;50.54
79663;BME280;69130;48.724;8.982;2023-04-24T11:23:58;95886.66;;;12.65;51.12
79663;BME280;69130;48.724;8.982;2023-04-24T11:26:24;95892.13;;;12.22;51.76
79663;BME280;69130;48.724;8.982;2023-04-24T11:29:06;95899.75;;;11.84;54.60
79663;BME280;69130;48.724;8.982;2023-04-24T11:31:40;95905.47;;;11.69;55.56
79663;BME280;69130;48.724;8.982;2023-04-24T11:34:11;95916.19;;;11.67;55.69
79663;BME280;69130;48.724;8.982;2023-04-24T11:36:37;95907.53;;;11.54;56.61
79663;BME280;69130;48.724;8.982;2023-04-24T11:39:03;95911.50;;;11.60;55.71
79663;BME280;69130;48.724;8.982;2023-04-24T11:41:29;95909.28;;;11.87;55.99
79663;BME280;69130;48.724;8.982;2023-04-24T11:43:55;95904.28;;;13.47;49.26
79663;BME280;69130;48.724;8.982;2023-04-24T11:46:21;95912.34;;;14.14;48.16
79663;BME280;69130;48.724;8.982;2023-04-24T11:48:47;95908.84;;;14.04;47.64
79663;BME280;69130;48.724;8.982;2023-04-24T11:51:13;95911.09;;;14.09;48.07
79663;BME280;69130;48.724;8.982;2023-04-24T11:53:39;95906.13;;;13.66;49.27
79663;BME280;69130;48.724;8.982;2023-04-24T11:56:04;95905.41;;;13.14;49.99
79663;BME280;69130;48.724;8.982;2023-04-24T11:58:37;95907.22;;;12.43;51.71
79663;BME280;69130;48.724;8.982;2023-04-24T12:01:04;95915.50;;;11.97;53.47
79663;BME280;69130;48.724;8.982;2023-04-24T12:03:31;95925.72;;;11.70;55.08
79663;BME280;69130;48.724;8.982;2023-04-24T12:06:07;95928.66;;;11.22;54.80
79663;BME280;69130;48.724;8.982;2023-04-24T12:08:35;95923.56;;;11.19;54.40
79663;BME280;69130;48.724;8.982;2023-04-24T12:11:02;95926.94;;;11.21;53.62
79663;BME280;69130;48.724;8.982;2023-04-24T12:13:28;95935.59;;;11.46;52.24
79663;BME280;69130;48.724;8.982;2023-04-24T12:15:53;95932.91;;;11.79;53.29
79663;BME280;69130;48.724;8.982;2023-04-24T12:18:22;95926.53;;;11.81;52.18
79663;BME280;69130;48.724;8.982;2023-04-24T12:20:47;95925.31;;;11.85;51.99
79663;BME280;69130;48.724;8.982;2023-04-24T12:23:13;95923.97;;;11.91;52.03
79663;BME280;69130;48.724;8.982;2023-04-24T12:25:39;95915.75;;;11.94;53.84
79663;BME280;69130;48.724;8.982;2023-04-24T12:30:33;95931.34;;;11.65;52.76
79663;BME280;69130;48.724;8.982;2023-04-24T12:33:00;95929.94;;;11.50;53.66
79663;BME280;69130;48.724;8.982;2023-04-24T12:35:28;95928.38;;;11.25;56.22
79663;BME280;69130;48.724;8.982;2023-04-24T12:37:54;95935.28;;;10.95;56.50
79663;BME280;69130;48.724;8.982;2023-04-24T12:40:21;95925.34;;;10.64;57.68
79663;BME280;69130;48.724;8.982;2023-04-24T12:42:49;95936.03;;;10.51;58.68
79663;BME280;69130;48.724;8.982;2023-04-24T12:45:15;95916.28;;;10.33;60.25
79663;BME280;69130;48.724;8.982;2023-04-24T12:47:42;95921.31;;;10.25;59.53
79663;BME280;69130;48.724;8.982;2023-04-24T12:50:12;95923.09;;;10.24;60.23
79663;BME280;69130;48.724;8.982;2023-04-24T12:52:38;95921.28;;;10.14;60.15
79663;BME280;69130;48.724;8.982;2023-04-24T12:55:04;95921.31;;;10.01;61.89
79663;BME280;69130;48.724;8.982;2023-04-24T12:57:33;95924.00;;;9.89;63.85
79663;BME280;69130;48.724;8.982;2023-04-24T12:59:59;95928.19;;;9.80;69.85
79663;BME280;69130;48.724;8.982;2023-04-24T13:02:27;95933.78;;;9.99;67.42
79663;BME280;69130;48.724;8.982;2023-04-24T13:04:54;95929.69;;;10.19;64.26
79663;BME280;69130;48.724;8.982;2023-04-24T13:07:19;95922.50;;;10.32;63.89
79663;BME280;69130;48.724;8.982;2023-04-24T13:09:47;95918.28;;;10.75;61.91
79663;BME280;69130;48.724;8.982;2023-04-24T13:12:13;95921.00;;;11.51;58.01
79663;BME280;69130;48.724;8.982;2023-04-24T13:14:39;95925.09;;;11.77;56.88